Overview Statistics Trail Chart Weather Telemetry Raw packets
 

This is the latest recevied weather packets stored in our database for station/object SP9TKN-1. If no packets are shown the sender has not sent any weather packets the latest 10 day(s).

<< 1 2 3 4 5 6 >>
Time Temp. Humidity Pressure Rain* Wind** Luminosity Snow
1788528908 25.56° C 46% 987.5 hPa - - - -
1788528008 25.56° C 47% 987.9 hPa - - - -
1788527109 25.56° C 46% 988.2 hPa - - - -
1788526207 25.56° C 45% 988.2 hPa - - - -
1788525307 25° C 47% 988.4 hPa - - - -
1788524407 25° C 47% 988.6 hPa - - - -
1788523507 25.56° C 46% 988.9 hPa - - - -
1788522607 25° C 47% 988.9 hPa - - - -
1788521707 25° C 47% 989.2 hPa - - - -
1788520807 25° C 46% 989.5 hPa - - - -
1788519907 24.44° C 48% 989.8 hPa - - - -
1788519007 23.33° C 50% 989.8 hPa - - - -
1788518108 23.33° C 50% 989.8 hPa - - - -
1788517207 23.33° C 48% 990 hPa - - - -
1788516307 23.89° C 47% 990.2 hPa - - - -
1788515406 24.44° C 46% 990.3 hPa - - - -
1788514507 24.44° C 48% 990.7 hPa - - - -
1788513606 23.33° C 51% 990.9 hPa - - - -
1788512706 22.78° C 51% 991.1 hPa - - - -
1788511805 22.22° C 55% 991.3 hPa - - - -
1788510908 21.67° C 58% 991.2 hPa - - - -
1788509107 20.56° C 60% 991.6 hPa - - - -
1788508207 20.56° C 61% 991.6 hPa - - - -
1788507308 20.56° C 61% 991.7 hPa - - - -
1788506408 20° C 62% 991.9 hPa - - - -

* Rain since midnight (hover to see other rain measurements)
** Current wind speed in m/s (hover to see current wind gust speed)